Beachmont, Massachusetts
Current Conditions -  °F | °C
As of 4:54 AM on Sunday 21 Dec 2014 (Local Time) from KBOS Reporting Station
Light Snow Light Snow  
Wind Chill: 24°   Ceiling: 1600
Heat Index: 32°   Visibility: 9mi
Dew Point: 28°   Wind: 10mph
Humidity: 85%   Direction: 10°N
Pressure: 30.29"   Gusts: NA
Location:  42.4188°N, 71.0044°W
Report Text: KBOS 210954Z 01009KT 9SM -SN FEW010 OVC016 00/M02 A3029 RMK AO2 SLP256 PCPN VRY LGT P0000 T00001022
Loading
Personal Weather Stations






























Interactive Weather Map New forecast layout! Learn more

10-Day Weather Forecast

Advertisements
Track Severe Weather on mobile